Time;durP1;ratioP1;P1;durP2;ratioP2;P2;SDS_P1;SDS_P2;PMS_P1;PMS_P2;Temp;Humidity;BMP_temperature;BMP_pressure;BME280_temperature;BME280_humidity;BME280_pressure;Samples;Min_cycle;Max_cycle;Signal;HPM_P1;HPM_P2
2021/10/26 00:00:39;;;;;;;62.33;31.97;;;;;;;-0.11;76.13;99556.67;2173056;82;20973;-80
2021/10/26 00:03:42;;;;;;;59.23;30.50;;;;;;;-0.13;76.27;99554.41;2162921;82;21387;-79
2021/10/26 00:06:42;;;;;;;57.00;29.53;;;;;;;-0.12;76.27;99548.48;2173107;81;20976;-80
2021/10/26 00:09:43;;;;;;;52.07;26.30;;;;;;;-0.11;76.40;99545.13;2173041;81;21047;-80
2021/10/26 00:12:43;;;;;;;50.73;26.50;;;;;;;-0.10;76.25;99538.31;2173370;81;20948;-80
2021/10/26 00:15:44;;;;;;;53.57;27.33;;;;;;;-0.10;76.07;99544.34;2173106;81;21012;-81
2021/10/26 00:18:44;;;;;;;54.17;29.10;;;;;;;-0.10;75.97;99543.05;2172866;81;20965;-81
2021/10/26 00:21:45;;;;;;;56.23;27.33;;;;;;;-0.08;76.32;99547.89;2172781;81;20945;-80
2021/10/26 00:24:45;;;;;;;63.23;29.17;;;;;;;-0.04;76.52;99547.69;2173029;81;21344;-81
2021/10/26 00:27:46;;;;;;;57.83;28.93;;;;;;;-0.05;76.24;99554.90;2172981;81;21309;-80
2021/10/26 00:30:46;;;;;;;59.40;28.93;;;;;;;-0.07;76.11;99554.80;2172916;81;20969;-80
2021/10/26 00:33:47;;;;;;;54.03;28.63;;;;;;;-0.09;76.08;99552.53;2173033;81;20945;-79
2021/10/26 00:36:47;;;;;;;61.83;29.90;;;;;;;-0.10;76.20;99553.72;2172920;81;21017;-81
2021/10/26 00:39:50;;;;;;;61.00;30.97;;;;;;;-0.10;76.27;99554.60;2161626;82;21035;-79
2021/10/26 00:42:51;;;;;;;57.60;30.40;;;;;;;-0.06;76.34;99555.30;2173010;81;20953;-80
2021/10/26 00:45:52;;;;;;;48.83;26.93;;;;;;;0.00;76.52;99550.98;2172959;81;20964;-80
2021/10/26 00:48:52;;;;;;;57.67;29.30;;;;;;;-0.04;76.16;99560.13;2173107;81;20972;-79
2021/10/26 00:51:55;;;;;;;54.60;28.30;;;;;;;-0.08;75.79;99558.55;2173194;81;20929;-80
2021/10/26 00:54:55;;;;;;;56.23;29.53;;;;;;;-0.14;75.76;99551.34;2173234;81;21016;-80
2021/10/26 00:57:56;;;;;;;58.77;28.70;;;;;;;-0.18;75.81;99562.20;2172602;81;21024;-79
2021/10/26 01:00:56;;;;;;;57.03;28.03;;;;;;;-0.19;76.04;99555.29;2172868;81;21011;-79
2021/10/26 01:03:57;;;;;;;54.47;26.70;;;;;;;-0.17;76.09;99551.54;2173472;81;20972;-80
2021/10/26 01:06:57;;;;;;;69.20;28.77;;;;;;;-0.18;75.83;99549.37;2172811;82;21056;-80
2021/10/26 01:09:58;;;;;;;62.30;27.83;;;;;;;-0.21;75.79;99544.44;2173259;81;21059;-80
2021/10/26 01:12:58;;;;;;;56.33;28.77;;;;;;;-0.21;75.75;99554.69;2173154;81;20934;-80
2021/10/26 01:15:59;;;;;;;58.17;27.67;;;;;;;-0.19;75.76;99546.31;2173151;81;20929;-79
2021/10/26 01:18:59;;;;;;;74.27;30.03;;;;;;;-0.19;75.70;99553.12;2172774;81;21769;-81
2021/10/26 01:22:00;;;;;;;62.00;30.63;;;;;;;-0.22;75.69;99551.63;2173284;81;21023;-80
2021/10/26 01:25:00;;;;;;;56.87;29.27;;;;;;;-0.26;75.81;99552.23;2172866;81;20989;-81
2021/10/26 01:28:01;;;;;;;65.73;29.73;;;;;;;-0.28;75.98;99549.56;2172995;81;21019;-80
2021/10/26 01:31:01;;;;;;;75.33;30.10;;;;;;;-0.27;75.91;99550.45;2173005;81;21004;-80
2021/10/26 01:34:02;;;;;;;55.40;28.60;;;;;;;-0.30;75.92;99546.00;2173245;81;20984;-80
2021/10/26 01:37:02;;;;;;;53.23;27.03;;;;;;;-0.30;76.05;99545.12;2172887;81;21410;-80
2021/10/26 01:40:03;;;;;;;57.17;30.13;;;;;;;-0.32;75.85;99539.48;2173384;81;21072;-80
2021/10/26 01:43:03;;;;;;;61.80;29.87;;;;;;;-0.32;76.11;99540.77;2173637;81;21016;-80
2021/10/26 01:46:07;;;;;;;53.50;27.73;;;;;;;-0.32;76.09;99536.04;2173389;81;20964;-80
2021/10/26 01:49:07;;;;;;;60.90;29.27;;;;;;;-0.31;75.87;99528.84;2173183;81;21473;-80
2021/10/26 01:52:08;;;;;;;63.40;30.33;;;;;;;-0.35;75.55;99539.69;2172645;82;20952;-81
2021/10/26 01:55:08;;;;;;;62.43;30.83;;;;;;;-0.35;76.14;99535.44;2173132;82;20977;-81
2021/10/26 01:58:09;;;;;;;55.37;29.60;;;;;;;-0.33;75.89;99530.41;2172586;81;21337;-81
2021/10/26 02:01:10;;;;;;;57.57;29.50;;;;;;;-0.38;75.78;99539.09;2173185;82;21004;-80
2021/10/26 02:04:11;;;;;;;60.80;29.03;;;;;;;-0.39;75.83;99537.70;2173250;81;21004;-81
2021/10/26 02:07:14;;;;;;;53.73;29.57;;;;;;;-0.39;76.00;99533.86;2173261;82;20917;-80
2021/10/26 02:10:16;;;;;;;55.87;29.40;;;;;;;-0.45;75.59;99534.34;2173346;81;20984;-81
2021/10/26 02:13:16;;;;;;;54.50;29.07;;;;;;;-0.45;75.58;99535.63;2173252;81;21380;-81
2021/10/26 02:16:18;;;;;;;58.57;28.90;;;;;;;-0.48;75.58;99527.73;2173231;81;20977;-80
2021/10/26 02:19:19;;;;;;;65.50;29.50;;;;;;;-0.52;75.57;99525.75;2172906;81;20992;-79
2021/10/26 02:22:19;;;;;;;110.40;33.17;;;;;;;-0.54;75.74;99523.88;2173283;81;20945;-80
2021/10/26 02:25:20;;;;;;;51.87;28.00;;;;;;;-0.52;76.00;99518.45;2172279;81;20972;-81
2021/10/26 02:28:21;;;;;;;57.97;28.80;;;;;;;-0.53;75.82;99515.40;2173136;82;20936;-81
2021/10/26 02:31:21;;;;;;;57.33;28.93;;;;;;;-0.55;75.81;99522.10;2173129;81;21364;-80
2021/10/26 02:34:22;;;;;;;52.47;28.57;;;;;;;-0.54;75.77;99527.33;2173328;81;20981;-83
2021/10/26 02:37:23;;;;;;;60.23;29.20;;;;;;;-0.56;75.56;99522.89;2173408;81;20992;-81
2021/10/26 02:40:23;;;;;;;52.93;28.33;;;;;;;-0.56;75.82;99525.45;2173244;81;21015;-79
2021/10/26 02:43:25;;;;;;;53.83;28.57;;;;;;;-0.57;75.44;99535.22;2172967;81;20969;-82
2021/10/26 02:46:26;;;;;;;64.90;28.00;;;;;;;-0.59;75.54;99527.81;2172930;81;21365;-82
2021/10/26 02:49:26;;;;;;;61.57;29.77;;;;;;;-0.60;75.63;99533.73;2172971;81;20985;-81
2021/10/26 02:52:26;;;;;;;55.53;28.63;;;;;;;-0.60;75.92;99538.47;2172669;81;20956;-82
2021/10/26 02:55:27;;;;;;;58.33;29.77;;;;;;;-0.56;76.08;99538.28;2172570;81;20909;-82
2021/10/26 02:58:27;;;;;;;56.13;28.87;;;;;;;-0.55;75.79;99531.08;2172271;81;21460;-82
2021/10/26 03:01:28;;;;;;;64.27;29.83;;;;;;;-0.55;76.00;99528.52;2172696;82;20968;-80
2021/10/26 03:04:31;;;;;;;57.00;30.23;;;;;;;-0.54;75.98;99523.88;2173042;81;21011;-80
2021/10/26 03:07:31;;;;;;;55.40;28.77;;;;;;;-0.52;75.92;99526.15;2173289;81;21023;-80
2021/10/26 03:10:32;;;;;;;58.27;30.63;;;;;;;-0.50;75.88;99532.27;2172334;81;21048;-80
2021/10/26 03:13:32;;;;;;;60.83;29.60;;;;;;;-0.49;75.85;99537.89;2172251;81;21051;-81
2021/10/26 03:16:33;;;;;;;55.17;28.13;;;;;;;-0.49;75.79;99532.77;2172798;81;20937;-80
2021/10/26 03:19:33;;;;;;;61.37;30.50;;;;;;;-0.51;75.73;99536.91;2173296;81;20957;-81
2021/10/26 03:22:34;;;;;;;62.00;29.83;;;;;;;-0.52;75.71;99534.73;2172822;81;20977;-81
2021/10/26 03:25:35;;;;;;;56.50;29.63;;;;;;;-0.54;75.70;99531.57;2172219;81;20940;-81
2021/10/26 03:28:35;;;;;;;53.87;28.67;;;;;;;-0.55;75.66;99537.48;2172136;81;21039;-82
2021/10/26 03:31:36;;;;;;;49.27;28.10;;;;;;;-0.58;75.74;99536.89;2172306;81;21395;-80
2021/10/26 03:34:36;;;;;;;56.57;31.30;;;;;;;-0.53;75.83;99541.05;2171923;81;20992;-81
2021/10/26 03:37:37;;;;;;;58.57;30.97;;;;;;;-0.52;75.93;99536.41;2172143;81;20941;-81
2021/10/26 03:40:38;;;;;;;79.80;30.33;;;;;;;-0.51;75.87;99532.66;2172560;81;21015;-80
2021/10/26 03:43:38;;;;;;;80.53;30.90;;;;;;;-0.53;75.36;99535.52;2172553;81;20961;-83
2021/10/26 03:46:39;;;;;;;59.63;30.17;;;;;;;-0.57;75.59;99533.94;2172455;81;20945;-83
2021/10/26 03:49:39;;;;;;;61.70;28.20;;;;;;;-0.57;75.80;99528.41;2172518;81;21040;-81
2021/10/26 03:52:41;;;;;;;62.27;31.03;;;;;;;-0.56;75.99;99535.71;2172316;82;21050;-81
2021/10/26 03:55:41;;;;;;;68.63;31.43;;;;;;;-0.55;75.97;99538.77;2172630;81;21016;-84
2021/10/26 03:58:42;;;;;;;69.70;29.97;;;;;;;-0.54;75.45;99535.02;2171876;81;21008;-82
2021/10/26 04:01:43;;;;;;;51.33;26.73;;;;;;;-0.54;75.73;99529.89;2172305;81;20980;-83
2021/10/26 04:04:44;;;;;;;53.97;28.60;;;;;;;-0.53;75.71;99525.27;2173363;81;21344;-80
2021/10/26 04:07:53;;;;;;;51.80;27.37;;;;;;;-0.56;75.60;99528.91;2172974;81;20980;-80
2021/10/26 04:10:54;;;;;;;52.53;28.07;;;;;;;-0.55;75.88;99527.23;2172836;81;21091;-80
2021/10/26 04:13:54;;;;;;;54.57;28.23;;;;;;;-0.57;75.94;99528.80;2173393;82;21029;-80
2021/10/26 04:16:55;;;;;;;49.33;27.30;;;;;;;-0.61;75.89;99517.45;2174052;81;20988;-80
2021/10/26 04:19:57;;;;;;;52.17;27.53;;;;;;;-0.62;75.98;99516.96;2172951;81;20996;-81
2021/10/26 04:22:58;;;;;;;54.37;27.23;;;;;;;-0.60;75.83;99523.47;2172776;82;21044;-82
2021/10/26 04:25:58;;;;;;;57.60;28.60;;;;;;;-0.60;75.71;99518.34;2171506;81;20952;-82
2021/10/26 04:28:59;;;;;;;49.27;26.33;;;;;;;-0.63;75.69;99518.14;2171510;81;20980;-82
2021/10/26 04:31:59;;;;;;;55.00;28.47;;;;;;;-0.65;75.59;99511.23;2170997;81;20917;-82
2021/10/26 04:34:59;;;;;;;151.23;34.10;;;;;;;-0.65;75.67;99514.20;2171867;81;20991;-80
2021/10/26 04:38:00;;;;;;;57.10;29.00;;;;;;;-0.66;75.78;99517.55;2172062;81;21000;-80
2021/10/26 04:41:02;;;;;;;55.90;27.53;;;;;;;-0.62;75.80;99507.10;2172076;81;20988;-80
2021/10/26 04:44:02;;;;;;;64.70;29.73;;;;;;;-0.60;75.74;99505.52;2172803;82;20997;-82
2021/10/26 04:47:03;;;;;;;52.13;27.43;;;;;;;-0.61;75.70;99503.75;2172088;81;21396;-82
2021/10/26 04:50:03;;;;;;;77.77;31.63;;;;;;;-0.65;75.64;99505.22;2172381;81;20988;-80
2021/10/26 04:53:04;;;;;;;58.50;28.07;;;;;;;-0.65;75.71;99496.25;2171410;82;20961;-79
2021/10/26 04:56:04;;;;;;;69.60;30.97;;;;;;;-0.66;75.40;99497.92;2171797;81;20980;-80
2021/10/26 04:59:05;;;;;;;69.07;30.30;;;;;;;-0.65;75.75;99499.70;2170602;81;21427;-80
2021/10/26 05:02:05;;;;;;;58.50;29.30;;;;;;;-0.65;75.85;99507.78;2168025;81;20965;-81
2021/10/26 05:05:06;;;;;;;84.03;30.07;;;;;;;-0.67;76.03;99500.39;2169104;81;20980;-79
2021/10/26 05:08:07;;;;;;;72.37;31.13;;;;;;;-0.66;76.03;99509.47;2168389;81;21004;-81
2021/10/26 05:11:07;;;;;;;62.77;29.87;;;;;;;-0.66;76.30;99500.48;2168891;81;21015;-81
2021/10/26 05:14:08;;;;;;;61.03;30.47;;;;;;;-0.65;76.24;99502.27;2169432;81;20949;-80
2021/10/26 05:17:11;;;;;;;56.97;28.60;;;;;;;-0.64;76.35;99505.72;2169547;81;20926;-79
2021/10/26 05:20:13;;;;;;;68.13;29.67;;;;;;;-0.63;76.38;99507.89;2169729;81;21343;-80
2021/10/26 05:23:13;;;;;;;106.63;32.60;;;;;;;-0.60;76.47;99508.09;2170112;81;21032;-80
2021/10/26 05:26:13;;;;;;;63.97;30.83;;;;;;;-0.58;76.44;99509.97;2170194;81;21380;-80
2021/10/26 05:29:14;;;;;;;65.20;28.70;;;;;;;-0.56;76.46;99507.50;2170041;81;21387;-79
2021/10/26 05:32:14;;;;;;;57.57;29.23;;;;;;;-0.55;76.28;99511.45;2169604;81;20985;-81
2021/10/26 05:35:15;;;;;;;70.43;29.13;;;;;;;-0.52;76.36;99514.61;2169350;81;21388;-80
2021/10/26 05:38:15;;;;;;;63.83;29.77;;;;;;;-0.47;76.46;99518.36;2169073;81;20921;-82
2021/10/26 05:41:16;;;;;;;56.53;28.03;;;;;;;-0.40;76.53;99521.83;2168517;81;21028;-81
2021/10/26 05:44:16;;;;;;;80.93;40.80;;;;;;;-0.36;76.47;99530.22;2168567;81;20993;-80
2021/10/26 05:47:17;;;;;;;63.23;30.93;;;;;;;-0.34;76.44;99523.50;2168542;81;21037;-79
2021/10/26 05:50:19;;;;;;;60.73;29.30;;;;;;;-0.33;76.54;99516.30;2169004;81;20988;-80
2021/10/26 05:53:19;;;;;;;73.73;30.53;;;;;;;-0.29;76.63;99520.84;2169763;81;21041;-82
2021/10/26 05:56:20;;;;;;;70.23;31.33;;;;;;;-0.25;76.45;99520.25;2168621;81;20945;-80
2021/10/26 06:02:23;;;;;;;52.30;28.57;;;;;;;-0.09;76.50;99521.73;2159635;82;20925;-80
2021/10/26 06:05:23;;;;;;;86.93;30.47;;;;;;;-0.03;76.32;99519.95;2168344;81;21399;-80
2021/10/26 06:08:24;;;;;;;54.60;28.00;;;;;;;0.03;76.27;99520.77;2167406;81;20953;-80
2021/10/26 06:11:25;;;;;;;58.37;29.27;;;;;;;0.08;76.03;99530.94;2167568;81;20992;-79
2021/10/26 06:14:27;;;;;;;53.17;27.67;;;;;;;0.13;76.06;99537.25;2167809;81;21356;-80
2021/10/26 06:17:29;;;;;;;97.27;55.47;;;;;;;0.22;76.00;99533.59;2168513;81;21031;-79
2021/10/26 06:20:30;;;;;;;60.10;30.37;;;;;;;0.27;75.92;99532.59;2168229;81;20917;-79
2021/10/26 06:23:31;;;;;;;54.10;27.90;;;;;;;0.34;75.88;99534.75;2168223;82;20964;-80
2021/10/26 06:26:32;;;;;;;57.97;29.97;;;;;;;0.43;76.03;99540.46;2169231;81;20953;-80
2021/10/26 06:29:33;;;;;;;53.27;28.80;;;;;;;0.50;75.93;99543.91;2168538;82;20984;-80
2021/10/26 06:32:33;;;;;;;53.97;27.90;;;;;;;0.57;75.94;99540.92;2168256;81;21333;-79
2021/10/26 06:35:34;;;;;;;89.83;29.23;;;;;;;0.69;75.80;99542.47;2168565;81;21300;-80
2021/10/26 06:38:34;;;;;;;51.67;28.50;;;;;;;0.78;75.63;99549.06;2168216;81;20921;-80
2021/10/26 06:41:35;;;;;;;52.27;27.87;;;;;;;0.93;75.72;99554.28;2169692;81;20992;-79
2021/10/26 06:44:35;;;;;;;44.43;27.40;;;;;;;1.04;75.75;99556.22;2169413;81;20969;-79
2021/10/26 06:47:36;;;;;;;51.90;27.00;;;;;;;1.14;75.55;99560.72;2169337;81;20949;-79
2021/10/26 06:50:36;;;;;;;51.93;27.97;;;;;;;1.25;75.51;99563.53;2169406;82;20977;-79
2021/10/26 06:53:40;;;;;;;52.47;28.33;;;;;;;1.43;75.65;99569.27;2170101;81;20961;-79
2021/10/26 06:56:39;;;;;;;49.93;28.57;;;;;;;1.61;75.47;99570.36;2169286;81;21083;-79
2021/10/26 06:59:40;;;;;;;51.70;28.50;;;;;;;1.78;75.36;99567.11;2169764;81;20996;-80
2021/10/26 07:02:40;;;;;;;43.43;26.53;;;;;;;1.95;75.36;99563.32;2169609;81;20933;-80
2021/10/26 07:05:41;;;;;;;48.07;26.80;;;;;;;2.11;75.24;99565.96;2168909;81;20949;-79
2021/10/26 07:08:42;;;;;;;58.30;27.93;;;;;;;2.29;75.05;99561.84;2169525;81;20961;-80
2021/10/26 07:11:42;;;;;;;48.70;27.10;;;;;;;2.47;74.90;99565.43;2169867;81;20996;-79
2021/10/26 07:14:43;;;;;;;50.47;27.30;;;;;;;2.73;74.73;99568.17;2169960;81;21367;-80
2021/10/26 07:17:43;;;;;;;50.30;28.33;;;;;;;2.94;74.58;99563.27;2169691;82;21000;-79
2021/10/26 07:20:44;;;;;;;44.87;26.67;;;;;;;3.20;74.34;99562.06;2169624;81;20989;-80
2021/10/26 07:23:44;;;;;;;50.27;27.53;;;;;;;3.48;74.26;99564.00;2169809;81;21008;-80
2021/10/26 07:26:45;;;;;;;47.60;27.47;;;;;;;3.77;74.33;99559.41;2169202;81;20992;-79
2021/10/26 07:29:45;;;;;;;111.47;75.77;;;;;;;4.08;74.35;99563.09;2170090;82;20967;-79
2021/10/26 07:32:46;;;;;;;51.67;31.93;;;;;;;4.36;74.38;99557.59;2170156;81;20944;-79
2021/10/26 07:35:48;;;;;;;51.07;30.23;;;;;;;4.70;74.54;99558.77;2169607;81;20961;-80
2021/10/26 07:38:55;;;;;;;50.53;28.80;;;;;;;4.98;74.01;99563.08;2168971;81;20999;-79
2021/10/26 07:41:51;;;;;;;44.80;27.37;;;;;;;5.21;73.78;99559.37;2168676;81;21020;-79
2021/10/26 07:44:52;;;;;;;52.70;29.10;;;;;;;5.36;73.34;99558.75;2169330;81;20992;-78
2021/10/26 07:47:52;;;;;;;56.97;29.87;;;;;;;5.46;73.25;99555.75;2168756;81;20952;-79
2021/10/26 07:51:00;;;;;;;53.17;27.73;;;;;;;5.59;73.12;99551.98;2169421;81;21383;-77
2021/10/26 07:54:00;;;;;;;46.67;28.20;;;;;;;5.67;72.60;99556.66;2169157;81;21072;-77
2021/10/26 07:57:01;;;;;;;42.77;26.07;;;;;;;5.84;72.93;99550.00;2168916;81;21400;-77
2021/10/26 08:00:01;;;;;;;75.80;27.37;;;;;;;6.00;72.78;99552.44;2168169;81;20988;-78
2021/10/26 08:03:02;;;;;;;41.90;25.77;;;;;;;6.14;72.73;99553.03;2168197;81;20979;-79
2021/10/26 08:06:03;;;;;;;276.17;41.80;;;;;;;6.26;72.57;99540.16;2169057;81;21684;-80
2021/10/26 08:09:04;;;;;;;133.20;31.67;;;;;;;6.41;72.39;99543.77;2168396;82;20949;-78
2021/10/26 08:12:05;;;;;;;49.73;27.33;;;;;;;6.64;72.17;99543.36;2168244;81;20996;-79
2021/10/26 08:15:06;;;;;;;50.33;29.63;;;;;;;6.86;72.27;99532.97;2168729;82;20988;-79
2021/10/26 08:18:07;;;;;;;47.77;28.23;;;;;;;7.15;72.33;99540.97;2169584;82;21000;-79
2021/10/26 08:21:07;;;;;;;46.27;25.47;;;;;;;7.51;72.23;99534.91;2169965;81;20969;-78
2021/10/26 08:24:09;;;;;;;45.63;25.83;;;;;;;7.90;71.35;99522.41;2170287;82;20996;-79
2021/10/26 08:27:10;;;;;;;58.93;25.77;;;;;;;8.31;71.35;99531.13;2169242;82;20984;-78
2021/10/26 08:30:16;;;;;;;79.87;40.50;;;;;;;8.78;70.29;99526.98;2168588;81;21023;-79
2021/10/26 08:36:15;;;;;;;35.17;22.73;;;;;;;9.49;67.15;99521.20;2159939;82;21431;-79
2021/10/26 08:39:16;;;;;;;36.37;21.10;;;;;;;9.76;65.63;99523.67;2168620;81;20949;-77
2021/10/26 08:42:18;;;;;;;72.80;23.20;;;;;;;9.95;64.29;99514.59;2167711;81;21016;-78
2021/10/26 08:45:18;;;;;;;30.43;18.23;;;;;;;10.16;64.12;99514.23;2169770;81;20921;-79
2021/10/26 08:48:23;;;;;;;29.20;18.50;;;;;;;10.36;63.60;99513.01;2169885;82;21023;-78
2021/10/26 08:51:26;;;;;;;42.67;17.12;;;;;;;10.63;63.44;99514.52;2169743;81;21396;-79
2021/10/26 08:54:26;;;;;;;35.20;16.17;;;;;;;10.88;62.47;99510.70;2169283;81;21033;-78
2021/10/26 08:57:27;;;;;;;40.53;13.43;;;;;;;10.98;61.26;99508.31;2169399;81;20937;-80
2021/10/26 09:00:28;;;;;;;22.13;13.58;;;;;;;11.10;59.29;99502.03;2169383;81;20949;-80
2021/10/26 09:03:29;;;;;;;41.55;13.72;;;;;;;11.18;60.42;99500.45;2169458;81;21007;-79
2021/10/26 09:06:33;;;;;;;25.17;13.83;;;;;;;11.40;59.84;99507.00;2169737;81;21001;-80
2021/10/26 09:09:32;;;;;;;33.78;13.93;;;;;;;11.49;58.70;99503.25;2168935;81;21052;-78
2021/10/26 09:18:57;;;;;;;19.50;12.20;;;;;;;11.62;57.42;99506.09;2169182;82;21007;-79
2021/10/26 09:21:57;;;;;;;21.23;10.88;;;;;;;11.68;56.81;99504.47;2169071;81;21376;-78
2021/10/26 09:24:57;;;;;;;22.32;11.88;;;;;;;11.78;57.98;99499.89;2169184;82;20999;-79
2021/10/26 09:27:58;;;;;;;57.75;15.30;;;;;;;11.98;57.26;99500.22;2168863;82;21008;-79
2021/10/26 09:30:59;;;;;;;56.70;14.50;;;;;;;12.13;56.87;99496.55;2168617;81;21043;-78
2021/10/26 09:33:59;;;;;;;46.00;12.25;;;;;;;12.30;56.68;99495.96;2168681;82;20917;-77
2021/10/26 09:37:00;;;;;;;560.05;54.67;;;;;;;12.41;56.23;99497.00;2169200;81;20972;-80
2021/10/26 09:40:00;;;;;;;14.00;9.73;;;;;;;12.49;56.00;99494.49;2169503;82;20980;-79
2021/10/26 09:43:01;;;;;;;15.10;9.40;;;;;;;12.43;53.46;99496.59;2169098;82;21019;-77
2021/10/26 09:46:02;;;;;;;17.12;10.00;;;;;;;12.38;54.22;99506.13;2168629;82;20933;-79
2021/10/26 09:49:02;;;;;;;31.52;10.90;;;;;;;12.42;53.88;99496.14;2168448;82;20984;-79
2021/10/26 09:52:03;;;;;;;18.23;9.60;;;;;;;12.49;53.49;99497.99;2169489;81;20957;-79
2021/10/26 09:55:10;;;;;;;76.70;13.93;;;;;;;12.55;52.87;99491.53;2169474;82;20965;-78
2021/10/26 09:58:09;;;;;;;22.85;9.53;;;;;;;12.63;53.43;99489.91;2169279;81;21024;-79
2021/10/26 10:01:10;;;;;;;45.92;11.45;;;;;;;12.83;53.31;99485.36;2126939;83;20991;-79
2021/10/26 10:04:10;;;;;;;54.03;11.43;;;;;;;13.04;53.63;99486.97;2170363;81;21016;-78
2021/10/26 10:07:11;;;;;;;14.90;8.63;;;;;;;13.23;52.09;99489.41;2169646;81;20957;-79
2021/10/26 10:10:11;;;;;;;18.27;9.00;;;;;;;13.28;51.40;99476.80;2125911;84;21028;-79
2021/10/26 10:13:13;;;;;;;16.20;9.85;;;;;;;13.27;51.70;99480.28;2170665;81;21012;-77
2021/10/26 10:16:13;;;;;;;24.90;10.10;;;;;;;13.28;51.23;99475.48;2169375;82;20920;-79
2021/10/26 10:19:14;;;;;;;13.58;8.53;;;;;;;13.35;50.93;99475.13;2169848;81;20973;-78
2021/10/26 10:22:15;;;;;;;68.72;9.43;;;;;;;13.41;50.45;99474.31;2170523;81;20968;-80
2021/10/26 10:25:15;;;;;;;16.62;7.03;;;;;;;13.42;50.16;99468.20;2169430;81;21007;-80
2021/10/26 10:28:16;;;;;;;12.63;8.53;;;;;;;13.43;48.25;99462.09;2169891;82;21004;-81
2021/10/26 10:31:19;;;;;;;14.23;8.73;;;;;;;13.33;48.42;99460.69;2125729;84;21012;-80
2021/10/26 10:34:19;;;;;;;13.45;8.20;;;;;;;13.25;47.29;99451.86;2169347;81;21397;-80
2021/10/26 10:37:19;;;;;;;191.00;21.90;;;;;;;13.09;46.39;99452.52;2169349;82;20995;-79
2021/10/26 10:40:20;;;;;;;18.30;9.80;;;;;;;13.09;48.13;99453.83;2169802;81;20954;-80
2021/10/26 10:43:21;;;;;;;54.45;13.05;;;;;;;13.18;48.94;99450.47;2126413;84;21007;-80
2021/10/26 10:46:21;;;;;;;13.78;9.08;;;;;;;13.22;48.56;99442.66;2169355;81;20973;-79
2021/10/26 10:49:27;;;;;;;12.60;8.28;;;;;;;13.26;47.39;99440.94;2170279;81;20961;-80
2021/10/26 10:52:27;;;;;;;355.35;33.58;;;;;;;13.16;47.74;99442.98;2168854;82;20948;-78
2021/10/26 10:55:28;;;;;;;19.32;9.45;;;;;;;13.18;47.74;99442.17;2168434;82;20949;-79
2021/10/26 10:58:28;;;;;;;23.38;10.85;;;;;;;13.19;48.78;99436.50;2168835;81;21000;-80
2021/10/26 11:01:36;;;;;;;14.63;8.05;;;;;;;13.12;47.47;99430.27;2168370;81;21016;-80
2021/10/26 11:04:34;;;;;;;11.63;7.60;;;;;;;13.12;46.75;99427.66;2168338;81;21607;-80
2021/10/26 11:07:34;;;;;;;13.08;8.00;;;;;;;13.19;47.05;99426.89;2168651;81;20933;-79
2021/10/26 11:10:35;;;;;;;14.45;7.25;;;;;;;13.20;46.79;99428.65;2168154;82;21044;-80
2021/10/26 11:13:36;;;;;;;19.17;7.22;;;;;;;13.18;46.42;99423.83;2168690;81;20961;-81
2021/10/26 11:16:36;;;;;;;12.65;8.20;;;;;;;13.22;47.37;99420.38;2169871;82;20952;-80
2021/10/26 11:19:37;;;;;;;18.73;7.37;;;;;;;13.23;48.02;99418.20;2170521;82;20981;-79
2021/10/26 11:22:37;;;;;;;13.53;8.73;;;;;;;13.29;48.12;99419.56;2170557;81;20977;-79
2021/10/26 11:25:38;;;;;;;13.38;7.55;;;;;;;13.30;46.22;99413.46;2170378;81;21348;-78
2021/10/26 11:28:38;;;;;;;44.85;13.10;;;;;;;13.25;46.05;99424.77;2170134;81;21315;-78
2021/10/26 11:31:39;;;;;;;18.02;9.25;;;;;;;13.25;46.90;99428.27;2169820;82;20948;-79
2021/10/26 11:34:40;;;;;;;18.98;9.78;;;;;;;13.30;45.58;99423.07;2169744;82;21008;-78
2021/10/26 11:37:40;;;;;;;18.17;10.28;;;;;;;13.18;45.04;99419.89;2168738;81;20952;-79
2021/10/26 11:40:41;;;;;;;22.13;10.63;;;;;;;12.91;46.43;99428.26;2169021;82;20925;-78
2021/10/26 11:43:41;;;;;;;22.55;11.60;;;;;;;12.66;46.26;99425.77;2170070;81;21071;-79
2021/10/26 11:46:42;;;;;;;18.15;11.03;;;;;;;12.49;47.28;99418.56;2169306;81;20986;-79
2021/10/26 11:49:42;;;;;;;17.35;10.43;;;;;;;12.41;46.85;99423.27;2170026;81;20979;-81
2021/10/26 11:52:43;;;;;;;27.20;11.03;;;;;;;12.36;47.38;99418.83;2168826;82;21008;-78
2021/10/26 11:55:43;;;;;;;18.60;11.48;;;;;;;12.42;47.94;99414.98;2169359;81;21004;-78
2021/10/26 11:58:44;;;;;;;22.58;11.25;;;;;;;12.60;48.32;99419.15;2169237;81;21000;-78
2021/10/26 12:01:49;;;;;;;27.07;12.70;;;;;;;12.78;47.95;99412.38;2168466;81;21020;-78
2021/10/26 12:04:49;;;;;;;29.30;12.93;;;;;;;12.89;47.83;99409.45;2168151;81;20921;-79
2021/10/26 12:07:50;;;;;;;21.20;11.97;;;;;;;12.92;47.42;99409.48;2168192;81;21023;-79
2021/10/26 12:10:50;;;;;;;19.50;10.95;;;;;;;12.88;47.20;99403.33;2168258;81;20964;-79
2021/10/26 12:13:52;;;;;;;21.60;11.78;;;;;;;12.88;47.44;99400.71;2167459;81;20992;-78
2021/10/26 12:16:53;;;;;;;19.52;11.57;;;;;;;12.86;47.77;99406.80;2167698;81;20913;-78
2021/10/26 12:19:53;;;;;;;17.50;11.28;;;;;;;12.76;47.50;99392.28;2167417;81;21031;-78
2021/10/26 12:22:54;;;;;;;19.37;11.78;;;;;;;12.78;47.47;99396.66;2167527;81;21000;-80
2021/10/26 12:25:58;;;;;;;92.02;16.55;;;;;;;12.79;47.57;99394.06;2167992;81;20996;-79
2021/10/26 12:28:57;;;;;;;19.92;12.20;;;;;;;12.80;47.71;99391.01;2168723;81;20997;-79
2021/10/26 12:31:58;;;;;;;78.52;15.48;;;;;;;12.85;47.74;99388.01;2167939;81;21768;-78
2021/10/26 12:34:58;;;;;;;24.37;12.15;;;;;;;12.89;48.42;99388.49;2168373;81;21309;-79
2021/10/26 12:37:59;;;;;;;41.18;28.98;;;;;;;12.96;47.99;99387.70;2167587;81;20952;-78
2021/10/26 12:40:59;;;;;;;24.47;13.50;;;;;;;13.04;48.08;99391.31;2167617;81;21003;-79
2021/10/26 12:44:00;;;;;;;26.80;10.88;;;;;;;13.11;47.46;99383.96;2168464;81;21430;-81
2021/10/26 12:47:01;;;;;;;17.32;11.25;;;;;;;13.07;47.63;99384.79;2168430;81;21367;-79
2021/10/26 12:50:02;;;;;;;21.45;11.70;;;;;;;13.04;47.61;99388.69;2168436;81;20979;-80
2021/10/26 12:53:02;;;;;;;22.58;11.63;;;;;;;13.03;48.20;99386.94;2168615;81;21635;-80
2021/10/26 12:56:04;;;;;;;22.13;13.15;;;;;;;13.04;48.16;99383.45;2168888;81;20936;-79
2021/10/26 12:59:04;;;;;;;37.83;14.23;;;;;;;13.03;48.53;99386.50;2168361;82;20940;-79
2021/10/26 13:02:05;;;;;;;21.62;13.00;;;;;;;13.05;48.41;99376.91;2167329;81;21431;-79
2021/10/26 13:05:06;;;;;;;21.12;12.75;;;;;;;13.10;48.44;99376.96;2167750;82;21710;-79
2021/10/26 13:08:06;;;;;;;30.23;12.78;;;;;;;13.12;48.66;99377.86;2168467;81;21013;-79
2021/10/26 13:11:07;;;;;;;24.10;11.43;;;;;;;13.14;48.48;99371.31;2168358;81;21015;-80
2021/10/26 13:14:07;;;;;;;23.20;12.03;;;;;;;13.11;48.31;99376.53;2168605;81;21095;-80
2021/10/26 13:17:08;;;;;;;24.75;12.05;;;;;;;13.01;48.65;99381.67;2169098;81;21324;-81
2021/10/26 13:20:08;;;;;;;31.95;12.33;;;;;;;12.95;48.87;99367.59;2169209;81;20940;-80
2021/10/26 13:23:09;;;;;;;27.62;12.90;;;;;;;12.97;48.79;99365.88;2169328;81;20980;-79
2021/10/26 13:26:14;;;;;;;24.80;11.95;;;;;;;13.03;49.26;99358.11;2169132;82;21008;-79
2021/10/26 13:29:13;;;;;;;26.27;12.43;;;;;;;13.08;49.18;99364.27;2169535;81;20972;-78
2021/10/26 13:32:13;;;;;;;35.45;12.80;;;;;;;13.08;48.92;99357.72;2169849;81;21404;-79
2021/10/26 13:35:14;;;;;;;33.25;14.73;;;;;;;13.03;48.86;99360.73;2169919;81;21356;-78
2021/10/26 13:38:14;;;;;;;31.17;12.50;;;;;;;13.01;49.11;99367.27;2169696;81;21316;-79
2021/10/26 13:41:15;;;;;;;31.62;14.20;;;;;;;12.98;49.23;99363.70;2169751;82;20957;-80
2021/10/26 13:44:16;;;;;;;32.88;14.55;;;;;;;12.95;49.36;99362.36;2169823;82;21024;-77
2021/10/26 13:47:18;;;;;;;329.23;38.30;;;;;;;12.90;49.44;99371.91;2170201;81;20949;-78
2021/10/26 13:50:19;;;;;;;44.33;17.57;;;;;;;12.84;49.51;99360.94;2169516;81;21036;-79
2021/10/26 13:53:19;;;;;;;69.25;45.03;;;;;;;12.82;49.76;99368.33;2169784;81;21407;-78
2021/10/26 13:56:20;;;;;;;32.33;16.45;;;;;;;12.77;49.80;99363.03;2169008;81;20941;-79
2021/10/26 13:59:21;;;;;;;33.02;14.05;;;;;;;12.69;49.75;99360.33;2168613;82;20932;-78
2021/10/26 14:02:21;;;;;;;26.23;14.23;;;;;;;12.58;50.15;99365.88;2169298;81;20988;-79
2021/10/26 14:05:22;;;;;;;30.68;15.30;;;;;;;12.52;50.28;99371.03;2170624;81;20944;-78